sensor_id;sensor_type;location;lat;lon;timestamp;P1;durP1;ratioP1;P2;durP2;ratioP2
21503;SDS011;10913;51.992;9.228;2024-03-08T00:01:13;28.67;;;22.65;;
21503;SDS011;10913;51.992;9.228;2024-03-08T00:03:39;27.92;;;21.63;;
21503;SDS011;10913;51.992;9.228;2024-03-08T00:06:05;26.92;;;22.20;;
21503;SDS011;10913;51.992;9.228;2024-03-08T00:08:31;26.42;;;21.40;;
21503;SDS011;10913;51.992;9.228;2024-03-08T00:10:56;27.15;;;22.38;;
21503;SDS011;10913;51.992;9.228;2024-03-08T00:13:22;27.85;;;22.17;;
21503;SDS011;10913;51.992;9.228;2024-03-08T00:15:47;26.05;;;21.40;;
21503;SDS011;10913;51.992;9.228;2024-03-08T00:18:12;26.25;;;22.23;;
21503;SDS011;10913;51.992;9.228;2024-03-08T00:20:38;27.20;;;22.80;;
21503;SDS011;10913;51.992;9.228;2024-03-08T00:23:03;25.38;;;21.10;;
21503;SDS011;10913;51.992;9.228;2024-03-08T00:25:29;26.80;;;22.55;;
21503;SDS011;10913;51.992;9.228;2024-03-08T00:27:54;27.60;;;22.23;;
21503;SDS011;10913;51.992;9.228;2024-03-08T00:30:21;25.83;;;21.77;;
21503;SDS011;10913;51.992;9.228;2024-03-08T00:32:48;25.70;;;21.38;;
21503;SDS011;10913;51.992;9.228;2024-03-08T00:35:13;28.75;;;22.92;;
21503;SDS011;10913;51.992;9.228;2024-03-08T00:37:39;27.52;;;22.17;;
21503;SDS011;10913;51.992;9.228;2024-03-08T00:40:06;27.98;;;22.05;;
21503;SDS011;10913;51.992;9.228;2024-03-08T00:42:34;26.45;;;21.65;;
21503;SDS011;10913;51.992;9.228;2024-03-08T00:44:59;27.00;;;22.40;;
21503;SDS011;10913;51.992;9.228;2024-03-08T00:47:27;27.42;;;21.98;;
21503;SDS011;10913;51.992;9.228;2024-03-08T00:49:53;26.73;;;22.33;;
21503;SDS011;10913;51.992;9.228;2024-03-08T00:52:18;27.45;;;21.92;;
21503;SDS011;10913;51.992;9.228;2024-03-08T00:54:44;26.38;;;22.40;;
21503;SDS011;10913;51.992;9.228;2024-03-08T00:57:09;25.30;;;21.58;;
21503;SDS011;10913;51.992;9.228;2024-03-08T00:59:37;27.73;;;21.92;;
21503;SDS011;10913;51.992;9.228;2024-03-08T01:02:03;25.42;;;21.95;;
21503;SDS011;10913;51.992;9.228;2024-03-08T01:04:29;26.23;;;21.85;;
21503;SDS011;10913;51.992;9.228;2024-03-08T01:06:55;28.88;;;21.45;;
21503;SDS011;10913;51.992;9.228;2024-03-08T01:09:21;26.63;;;22.08;;
21503;SDS011;10913;51.992;9.228;2024-03-08T01:11:47;28.33;;;22.02;;
21503;SDS011;10913;51.992;9.228;2024-03-08T01:14:12;25.15;;;21.20;;
21503;SDS011;10913;51.992;9.228;2024-03-08T01:16:38;28.63;;;22.55;;
21503;SDS011;10913;51.992;9.228;2024-03-08T01:19:03;25.85;;;21.65;;
21503;SDS011;10913;51.992;9.228;2024-03-08T01:21:28;29.55;;;23.20;;
21503;SDS011;10913;51.992;9.228;2024-03-08T01:23:54;27.95;;;22.25;;
21503;SDS011;10913;51.992;9.228;2024-03-08T01:26:19;28.52;;;23.25;;
21503;SDS011;10913;51.992;9.228;2024-03-08T01:28:44;28.45;;;23.50;;
21503;SDS011;10913;51.992;9.228;2024-03-08T01:31:10;30.27;;;23.10;;
21503;SDS011;10913;51.992;9.228;2024-03-08T01:33:35;31.15;;;24.42;;
21503;SDS011;10913;51.992;9.228;2024-03-08T01:36:00;26.58;;;22.45;;
21503;SDS011;10913;51.992;9.228;2024-03-08T01:38:26;30.35;;;23.30;;
21503;SDS011;10913;51.992;9.228;2024-03-08T01:40:51;27.65;;;22.27;;
21503;SDS011;10913;51.992;9.228;2024-03-08T01:43:27;26.40;;;21.75;;
21503;SDS011;10913;51.992;9.228;2024-03-08T01:45:54;28.67;;;22.75;;
21503;SDS011;10913;51.992;9.228;2024-03-08T01:48:24;26.40;;;22.13;;
21503;SDS011;10913;51.992;9.228;2024-03-08T01:50:50;27.88;;;23.73;;
21503;SDS011;10913;51.992;9.228;2024-03-08T01:53:18;30.67;;;23.60;;
21503;SDS011;10913;51.992;9.228;2024-03-08T01:55:47;34.50;;;25.58;;
21503;SDS011;10913;51.992;9.228;2024-03-08T01:58:13;31.00;;;24.48;;
21503;SDS011;10913;51.992;9.228;2024-03-08T02:00:43;28.63;;;22.20;;
21503;SDS011;10913;51.992;9.228;2024-03-08T02:03:11;30.85;;;23.67;;
21503;SDS011;10913;51.992;9.228;2024-03-08T02:05:37;29.23;;;23.58;;
21503;SDS011;10913;51.992;9.228;2024-03-08T02:08:05;30.08;;;22.98;;
21503;SDS011;10913;51.992;9.228;2024-03-08T02:10:39;27.80;;;22.92;;
21503;SDS011;10913;51.992;9.228;2024-03-08T02:13:08;29.38;;;23.50;;
21503;SDS011;10913;51.992;9.228;2024-03-08T02:15:50;31.52;;;24.42;;
21503;SDS011;10913;51.992;9.228;2024-03-08T02:18:26;32.47;;;25.40;;
21503;SDS011;10913;51.992;9.228;2024-03-08T02:23:19;33.10;;;24.48;;
21503;SDS011;10913;51.992;9.228;2024-03-08T02:25:45;34.22;;;25.90;;
21503;SDS011;10913;51.992;9.228;2024-03-08T02:28:11;35.90;;;26.92;;
21503;SDS011;10913;51.992;9.228;2024-03-08T02:30:37;30.27;;;24.83;;
21503;SDS011;10913;51.992;9.228;2024-03-08T02:33:03;32.05;;;24.95;;
21503;SDS011;10913;51.992;9.228;2024-03-08T02:35:29;36.72;;;26.77;;
21503;SDS011;10913;51.992;9.228;2024-03-08T02:37:55;32.00;;;24.90;;
21503;SDS011;10913;51.992;9.228;2024-03-08T02:40:20;33.72;;;26.25;;
21503;SDS011;10913;51.992;9.228;2024-03-08T02:42:47;36.35;;;27.40;;
21503;SDS011;10913;51.992;9.228;2024-03-08T02:45:12;33.92;;;26.42;;
21503;SDS011;10913;51.992;9.228;2024-03-08T02:47:38;34.03;;;26.17;;
21503;SDS011;10913;51.992;9.228;2024-03-08T02:50:04;31.95;;;25.55;;
21503;SDS011;10913;51.992;9.228;2024-03-08T02:52:32;33.80;;;25.77;;
21503;SDS011;10913;51.992;9.228;2024-03-08T02:54:58;33.58;;;24.58;;
21503;SDS011;10913;51.992;9.228;2024-03-08T02:57:24;33.00;;;24.52;;
21503;SDS011;10913;51.992;9.228;2024-03-08T02:59:49;28.38;;;22.35;;
21503;SDS011;10913;51.992;9.228;2024-03-08T03:02:15;32.35;;;24.70;;
21503;SDS011;10913;51.992;9.228;2024-03-08T03:04:41;29.80;;;23.60;;
21503;SDS011;10913;51.992;9.228;2024-03-08T03:07:07;29.98;;;24.73;;
21503;SDS011;10913;51.992;9.228;2024-03-08T03:09:32;31.35;;;24.33;;
21503;SDS011;10913;51.992;9.228;2024-03-08T03:11:58;32.15;;;24.58;;
21503;SDS011;10913;51.992;9.228;2024-03-08T03:14:24;33.97;;;25.60;;
21503;SDS011;10913;51.992;9.228;2024-03-08T03:16:49;30.38;;;24.15;;
21503;SDS011;10913;51.992;9.228;2024-03-08T03:19:15;30.75;;;23.63;;
21503;SDS011;10913;51.992;9.228;2024-03-08T03:21:40;32.60;;;24.38;;
21503;SDS011;10913;51.992;9.228;2024-03-08T03:24:08;31.73;;;24.50;;
21503;SDS011;10913;51.992;9.228;2024-03-08T03:26:35;31.30;;;25.27;;
21503;SDS011;10913;51.992;9.228;2024-03-08T03:29:04;31.40;;;24.60;;
21503;SDS011;10913;51.992;9.228;2024-03-08T03:31:31;33.72;;;25.42;;
21503;SDS011;10913;51.992;9.228;2024-03-08T03:33:56;32.13;;;24.33;;
21503;SDS011;10913;51.992;9.228;2024-03-08T03:36:26;31.05;;;24.60;;
21503;SDS011;10913;51.992;9.228;2024-03-08T03:38:53;30.88;;;25.00;;
21503;SDS011;10913;51.992;9.228;2024-03-08T03:41:29;34.78;;;25.42;;
21503;SDS011;10913;51.992;9.228;2024-03-08T03:43:55;31.35;;;25.27;;
21503;SDS011;10913;51.992;9.228;2024-03-08T03:46:20;31.65;;;25.13;;
21503;SDS011;10913;51.992;9.228;2024-03-08T03:48:46;31.85;;;24.92;;
21503;SDS011;10913;51.992;9.228;2024-03-08T03:51:11;31.77;;;24.20;;
21503;SDS011;10913;51.992;9.228;2024-03-08T03:53:37;29.60;;;24.45;;
21503;SDS011;10913;51.992;9.228;2024-03-08T03:56:02;34.25;;;25.40;;
21503;SDS011;10913;51.992;9.228;2024-03-08T03:58:32;32.95;;;25.33;;
21503;SDS011;10913;51.992;9.228;2024-03-08T04:00:57;31.77;;;24.95;;
21503;SDS011;10913;51.992;9.228;2024-03-08T04:03:23;31.45;;;25.17;;
21503;SDS011;10913;51.992;9.228;2024-03-08T04:05:48;31.20;;;25.00;;
21503;SDS011;10913;51.992;9.228;2024-03-08T04:08:14;34.35;;;27.70;;
21503;SDS011;10913;51.992;9.228;2024-03-08T04:10:39;34.92;;;26.90;;
21503;SDS011;10913;51.992;9.228;2024-03-08T04:13:07;36.53;;;27.80;;
21503;SDS011;10913;51.992;9.228;2024-03-08T04:15:32;36.45;;;27.20;;
21503;SDS011;10913;51.992;9.228;2024-03-08T04:17:58;36.45;;;27.60;;
21503;SDS011;10913;51.992;9.228;2024-03-08T04:20:25;34.58;;;26.77;;
21503;SDS011;10913;51.992;9.228;2024-03-08T04:22:51;32.92;;;26.25;;
21503;SDS011;10913;51.992;9.228;2024-03-08T04:25:16;35.05;;;27.17;;
21503;SDS011;10913;51.992;9.228;2024-03-08T04:27:42;35.95;;;28.77;;
21503;SDS011;10913;51.992;9.228;2024-03-08T04:30:07;36.65;;;28.13;;
21503;SDS011;10913;51.992;9.228;2024-03-08T04:32:33;35.88;;;27.58;;
21503;SDS011;10913;51.992;9.228;2024-03-08T04:34:59;32.88;;;26.88;;
21503;SDS011;10913;51.992;9.228;2024-03-08T04:37:26;38.85;;;28.70;;
21503;SDS011;10913;51.992;9.228;2024-03-08T04:39:54;37.70;;;29.52;;
21503;SDS011;10913;51.992;9.228;2024-03-08T04:42:20;37.08;;;28.63;;
21503;SDS011;10913;51.992;9.228;2024-03-08T04:44:45;36.13;;;27.35;;
21503;SDS011;10913;51.992;9.228;2024-03-08T04:47:10;40.08;;;30.27;;
21503;SDS011;10913;51.992;9.228;2024-03-08T04:49:36;36.33;;;27.65;;
21503;SDS011;10913;51.992;9.228;2024-03-08T04:52:02;36.95;;;28.65;;
21503;SDS011;10913;51.992;9.228;2024-03-08T04:54:28;33.38;;;26.15;;
21503;SDS011;10913;51.992;9.228;2024-03-08T04:56:53;35.78;;;27.13;;
21503;SDS011;10913;51.992;9.228;2024-03-08T04:59:19;37.05;;;28.10;;
21503;SDS011;10913;51.992;9.228;2024-03-08T05:01:44;35.40;;;28.00;;
21503;SDS011;10913;51.992;9.228;2024-03-08T05:04:10;39.70;;;29.40;;
21503;SDS011;10913;51.992;9.228;2024-03-08T05:06:35;36.53;;;27.65;;
21503;SDS011;10913;51.992;9.228;2024-03-08T05:09:01;36.00;;;27.45;;
21503;SDS011;10913;51.992;9.228;2024-03-08T05:11:39;35.97;;;27.42;;
21503;SDS011;10913;51.992;9.228;2024-03-08T05:14:05;34.90;;;27.85;;
21503;SDS011;10913;51.992;9.228;2024-03-08T05:16:30;39.75;;;28.90;;
21503;SDS011;10913;51.992;9.228;2024-03-08T05:18:56;38.45;;;28.85;;
21503;SDS011;10913;51.992;9.228;2024-03-08T05:21:22;36.35;;;27.52;;
21503;SDS011;10913;51.992;9.228;2024-03-08T05:23:47;41.45;;;30.85;;
21503;SDS011;10913;51.992;9.228;2024-03-08T05:26:12;38.40;;;29.73;;
21503;SDS011;10913;51.992;9.228;2024-03-08T05:28:39;38.70;;;28.70;;
21503;SDS011;10913;51.992;9.228;2024-03-08T05:31:04;40.10;;;28.80;;
21503;SDS011;10913;51.992;9.228;2024-03-08T05:33:30;41.08;;;29.88;;
21503;SDS011;10913;51.992;9.228;2024-03-08T05:35:55;39.47;;;28.85;;
21503;SDS011;10913;51.992;9.228;2024-03-08T05:38:21;38.50;;;29.50;;
21503;SDS011;10913;51.992;9.228;2024-03-08T05:40:46;39.28;;;29.90;;
21503;SDS011;10913;51.992;9.228;2024-03-08T05:43:11;37.97;;;28.98;;
21503;SDS011;10913;51.992;9.228;2024-03-08T05:45:37;39.42;;;29.23;;
21503;SDS011;10913;51.992;9.228;2024-03-08T05:48:02;39.28;;;28.70;;
21503;SDS011;10913;51.992;9.228;2024-03-08T05:50:28;38.13;;;29.27;;
21503;SDS011;10913;51.992;9.228;2024-03-08T05:52:53;36.63;;;27.63;;
21503;SDS011;10913;51.992;9.228;2024-03-08T05:55:19;36.35;;;27.30;;
21503;SDS011;10913;51.992;9.228;2024-03-08T05:57:44;36.33;;;27.85;;
21503;SDS011;10913;51.992;9.228;2024-03-08T06:00:10;35.95;;;27.60;;
21503;SDS011;10913;51.992;9.228;2024-03-08T06:02:36;36.67;;;28.20;;
21503;SDS011;10913;51.992;9.228;2024-03-08T06:05:06;37.15;;;28.73;;
21503;SDS011;10913;51.992;9.228;2024-03-08T06:07:35;37.78;;;29.30;;
21503;SDS011;10913;51.992;9.228;2024-03-08T06:10:01;38.42;;;28.63;;
21503;SDS011;10913;51.992;9.228;2024-03-08T06:12:27;41.28;;;29.83;;
21503;SDS011;10913;51.992;9.228;2024-03-08T06:14:54;39.90;;;29.27;;
21503;SDS011;10913;51.992;9.228;2024-03-08T06:17:19;39.47;;;29.33;;
21503;SDS011;10913;51.992;9.228;2024-03-08T06:19:45;36.92;;;27.60;;
21503;SDS011;10913;51.992;9.228;2024-03-08T06:22:11;38.40;;;29.05;;
21503;SDS011;10913;51.992;9.228;2024-03-08T06:24:37;38.30;;;29.00;;
21503;SDS011;10913;51.992;9.228;2024-03-08T06:27:03;38.47;;;29.50;;
21503;SDS011;10913;51.992;9.228;2024-03-08T06:29:28;40.35;;;29.95;;
21503;SDS011;10913;51.992;9.228;2024-03-08T06:31:54;38.83;;;30.23;;
21503;SDS011;10913;51.992;9.228;2024-03-08T06:34:20;38.95;;;30.08;;
21503;SDS011;10913;51.992;9.228;2024-03-08T06:36:46;39.17;;;29.70;;
21503;SDS011;10913;51.992;9.228;2024-03-08T06:39:11;40.78;;;31.00;;
21503;SDS011;10913;51.992;9.228;2024-03-08T06:41:36;37.53;;;27.63;;
21503;SDS011;10913;51.992;9.228;2024-03-08T06:44:02;35.38;;;27.23;;
21503;SDS011;10913;51.992;9.228;2024-03-08T06:46:28;31.15;;;25.67;;
21503;SDS011;10913;51.992;9.228;2024-03-08T06:48:53;31.05;;;24.25;;
21503;SDS011;10913;51.992;9.228;2024-03-08T06:51:19;32.95;;;25.20;;
21503;SDS011;10913;51.992;9.228;2024-03-08T06:53:44;29.77;;;23.30;;
21503;SDS011;10913;51.992;9.228;2024-03-08T06:56:10;30.77;;;22.45;;
21503;SDS011;10913;51.992;9.228;2024-03-08T06:58:35;27.65;;;21.27;;
21503;SDS011;10913;51.992;9.228;2024-03-08T07:01:00;27.10;;;20.50;;
21503;SDS011;10913;51.992;9.228;2024-03-08T07:03:29;25.45;;;20.15;;
21503;SDS011;10913;51.992;9.228;2024-03-08T07:05:55;25.23;;;20.17;;
21503;SDS011;10913;51.992;9.228;2024-03-08T07:08:21;25.67;;;19.15;;
21503;SDS011;10913;51.992;9.228;2024-03-08T07:10:48;26.27;;;21.83;;
21503;SDS011;10913;51.992;9.228;2024-03-08T07:13:14;26.52;;;21.23;;
21503;SDS011;10913;51.992;9.228;2024-03-08T07:15:39;27.23;;;21.33;;
21503;SDS011;10913;51.992;9.228;2024-03-08T07:18:05;25.75;;;20.15;;
21503;SDS011;10913;51.992;9.228;2024-03-08T07:20:33;27.42;;;20.75;;
21503;SDS011;10913;51.992;9.228;2024-03-08T07:22:59;24.55;;;21.33;;
21503;SDS011;10913;51.992;9.228;2024-03-08T07:25:25;26.23;;;21.42;;
21503;SDS011;10913;51.992;9.228;2024-03-08T07:27:54;24.45;;;21.20;;
21503;SDS011;10913;51.992;9.228;2024-03-08T07:30:20;24.10;;;20.65;;
21503;SDS011;10913;51.992;9.228;2024-03-08T07:33:05;25.27;;;21.85;;
21503;SDS011;10913;51.992;9.228;2024-03-08T07:35:32;25.33;;;21.60;;
21503;SDS011;10913;51.992;9.228;2024-03-08T07:37:58;26.77;;;21.75;;
21503;SDS011;10913;51.992;9.228;2024-03-08T07:40:25;26.92;;;22.23;;
21503;SDS011;10913;51.992;9.228;2024-03-08T07:42:51;25.95;;;20.98;;
21503;SDS011;10913;51.992;9.228;2024-03-08T07:45:17;24.42;;;20.00;;
21503;SDS011;10913;51.992;9.228;2024-03-08T07:47:43;28.65;;;22.67;;
21503;SDS011;10913;51.992;9.228;2024-03-08T07:50:08;24.60;;;21.92;;
21503;SDS011;10913;51.992;9.228;2024-03-08T07:52:34;27.35;;;23.45;;
21503;SDS011;10913;51.992;9.228;2024-03-08T07:55:01;26.25;;;21.67;;
21503;SDS011;10913;51.992;9.228;2024-03-08T07:57:30;26.90;;;22.75;;
21503;SDS011;10913;51.992;9.228;2024-03-08T07:59:56;27.00;;;22.35;;
21503;SDS011;10913;51.992;9.228;2024-03-08T08:02:21;26.20;;;23.00;;
21503;SDS011;10913;51.992;9.228;2024-03-08T08:04:47;23.65;;;20.63;;
21503;SDS011;10913;51.992;9.228;2024-03-08T08:07:12;25.30;;;22.60;;
21503;SDS011;10913;51.992;9.228;2024-03-08T08:09:37;26.98;;;23.75;;
21503;SDS011;10913;51.992;9.228;2024-03-08T08:12:03;28.38;;;23.60;;
21503;SDS011;10913;51.992;9.228;2024-03-08T08:14:29;26.67;;;23.77;;
21503;SDS011;10913;51.992;9.228;2024-03-08T08:16:55;27.15;;;23.55;;
21503;SDS011;10913;51.992;9.228;2024-03-08T08:19:22;25.92;;;22.45;;
21503;SDS011;10913;51.992;9.228;2024-03-08T08:21:47;28.40;;;23.58;;
21503;SDS011;10913;51.992;9.228;2024-03-08T08:24:13;27.73;;;22.17;;
21503;SDS011;10913;51.992;9.228;2024-03-08T08:26:38;25.83;;;21.30;;
21503;SDS011;10913;51.992;9.228;2024-03-08T08:29:03;28.63;;;23.73;;
21503;SDS011;10913;51.992;9.228;2024-03-08T08:31:31;30.23;;;23.67;;
21503;SDS011;10913;51.992;9.228;2024-03-08T08:33:57;30.63;;;24.85;;
21503;SDS011;10913;51.992;9.228;2024-03-08T08:36:26;29.55;;;24.50;;
21503;SDS011;10913;51.992;9.228;2024-03-08T08:38:54;33.13;;;25.13;;
21503;SDS011;10913;51.992;9.228;2024-03-08T08:41:21;30.90;;;25.08;;
21503;SDS011;10913;51.992;9.228;2024-03-08T08:43:47;30.80;;;24.33;;
21503;SDS011;10913;51.992;9.228;2024-03-08T08:46:16;30.80;;;24.27;;
21503;SDS011;10913;51.992;9.228;2024-03-08T08:48:42;29.90;;;24.40;;
21503;SDS011;10913;51.992;9.228;2024-03-08T08:51:10;32.40;;;25.90;;
21503;SDS011;10913;51.992;9.228;2024-03-08T08:53:40;31.83;;;25.83;;
21503;SDS011;10913;51.992;9.228;2024-03-08T08:56:11;33.47;;;27.05;;
21503;SDS011;10913;51.992;9.228;2024-03-08T08:58:38;33.80;;;25.15;;
21503;SDS011;10913;51.992;9.228;2024-03-08T09:01:05;32.80;;;25.05;;
21503;SDS011;10913;51.992;9.228;2024-03-08T09:03:30;31.25;;;25.10;;
21503;SDS011;10913;51.992;9.228;2024-03-08T09:05:55;31.80;;;25.67;;
21503;SDS011;10913;51.992;9.228;2024-03-08T09:08:21;33.33;;;24.83;;
21503;SDS011;10913;51.992;9.228;2024-03-08T09:10:46;31.45;;;25.55;;
21503;SDS011;10913;51.992;9.228;2024-03-08T09:13:13;33.35;;;26.73;;
21503;SDS011;10913;51.992;9.228;2024-03-08T09:15:39;33.25;;;26.15;;
21503;SDS011;10913;51.992;9.228;2024-03-08T09:18:05;33.08;;;26.67;;
21503;SDS011;10913;51.992;9.228;2024-03-08T09:20:31;33.03;;;26.25;;
21503;SDS011;10913;51.992;9.228;2024-03-08T09:22:56;36.40;;;26.52;;
21503;SDS011;10913;51.992;9.228;2024-03-08T09:25:22;33.53;;;26.25;;
21503;SDS011;10913;51.992;9.228;2024-03-08T09:27:47;33.95;;;25.98;;
21503;SDS011;10913;51.992;9.228;2024-03-08T09:30:13;33.05;;;25.80;;
21503;SDS011;10913;51.992;9.228;2024-03-08T09:32:40;34.95;;;26.35;;
21503;SDS011;10913;51.992;9.228;2024-03-08T09:35:06;36.03;;;25.90;;
21503;SDS011;10913;51.992;9.228;2024-03-08T09:37:32;35.28;;;26.48;;
21503;SDS011;10913;51.992;9.228;2024-03-08T09:39:59;35.22;;;26.38;;
21503;SDS011;10913;51.992;9.228;2024-03-08T09:42:24;33.47;;;24.98;;
21503;SDS011;10913;51.992;9.228;2024-03-08T09:44:50;36.13;;;26.08;;
21503;SDS011;10913;51.992;9.228;2024-03-08T09:47:15;34.40;;;25.67;;
21503;SDS011;10913;51.992;9.228;2024-03-08T09:49:43;31.38;;;24.00;;
21503;SDS011;10913;51.992;9.228;2024-03-08T09:52:08;31.27;;;24.40;;
21503;SDS011;10913;51.992;9.228;2024-03-08T09:54:35;31.77;;;24.83;;
21503;SDS011;10913;51.992;9.228;2024-03-08T09:57:01;33.97;;;24.58;;
21503;SDS011;10913;51.992;9.228;2024-03-08T09:59:29;31.35;;;24.33;;
21503;SDS011;10913;51.992;9.228;2024-03-08T10:02:15;30.95;;;23.10;;
21503;SDS011;10913;51.992;9.228;2024-03-08T10:04:41;29.58;;;23.38;;
21503;SDS011;10913;51.992;9.228;2024-03-08T10:07:11;32.00;;;23.35;;
21503;SDS011;10913;51.992;9.228;2024-03-08T10:09:37;30.80;;;23.33;;
21503;SDS011;10913;51.992;9.228;2024-03-08T10:12:04;30.02;;;22.85;;
21503;SDS011;10913;51.992;9.228;2024-03-08T10:14:30;30.27;;;22.95;;
21503;SDS011;10913;51.992;9.228;2024-03-08T10:16:56;29.15;;;22.73;;
21503;SDS011;10913;51.992;9.228;2024-03-08T10:19:26;29.40;;;21.75;;
21503;SDS011;10913;51.992;9.228;2024-03-08T10:21:53;29.75;;;22.38;;
21503;SDS011;10913;51.992;9.228;2024-03-08T10:24:18;29.02;;;22.70;;
21503;SDS011;10913;51.992;9.228;2024-03-08T10:26:44;28.60;;;22.85;;
21503;SDS011;10913;51.992;9.228;2024-03-08T10:29:09;30.83;;;22.83;;
21503;SDS011;10913;51.992;9.228;2024-03-08T10:31:35;28.20;;;20.95;;
21503;SDS011;10913;51.992;9.228;2024-03-08T10:34:01;25.92;;;21.42;;
21503;SDS011;10913;51.992;9.228;2024-03-08T10:36:27;28.83;;;21.20;;
21503;SDS011;10913;51.992;9.228;2024-03-08T10:38:53;25.67;;;20.80;;
21503;SDS011;10913;51.992;9.228;2024-03-08T10:41:21;27.50;;;20.92;;
21503;SDS011;10913;51.992;9.228;2024-03-08T10:49:31;26.38;;;20.52;;
21503;SDS011;10913;51.992;9.228;2024-03-08T10:52:04;26.25;;;20.52;;
21503;SDS011;10913;51.992;9.228;2024-03-08T10:54:37;26.25;;;21.35;;
21503;SDS011;10913;51.992;9.228;2024-03-08T10:57:05;24.77;;;19.20;;
21503;SDS011;10913;51.992;9.228;2024-03-08T10:59:33;23.73;;;18.80;;
21503;SDS011;10913;51.992;9.228;2024-03-08T11:02:00;24.88;;;19.23;;
21503;SDS011;10913;51.992;9.228;2024-03-08T11:04:25;24.85;;;19.40;;
21503;SDS011;10913;51.992;9.228;2024-03-08T11:06:51;24.15;;;18.52;;
21503;SDS011;10913;51.992;9.228;2024-03-08T11:09:29;26.45;;;20.80;;
21503;SDS011;10913;51.992;9.228;2024-03-08T11:15:03;25.45;;;19.95;;
21503;SDS011;10913;51.992;9.228;2024-03-08T11:20:04;26.00;;;21.05;;
21503;SDS011;10913;51.992;9.228;2024-03-08T11:22:40;26.42;;;21.40;;
21503;SDS011;10913;51.992;9.228;2024-03-08T11:25:10;26.15;;;20.10;;
21503;SDS011;10913;51.992;9.228;2024-03-08T11:28:12;26.45;;;21.45;;
21503;SDS011;10913;51.992;9.228;2024-03-08T11:30:47;25.17;;;20.40;;
21503;SDS011;10913;51.992;9.228;2024-03-08T11:33:29;27.90;;;21.67;;
21503;SDS011;10913;51.992;9.228;2024-03-08T11:36:30;25.50;;;20.80;;
21503;SDS011;10913;51.992;9.228;2024-03-08T11:38:49;25.40;;;20.98;;
21503;SDS011;10913;51.992;9.228;2024-03-08T11:41:24;26.90;;;21.08;;
21503;SDS011;10913;51.992;9.228;2024-03-08T11:43:52;27.88;;;22.80;;
21503;SDS011;10913;51.992;9.228;2024-03-08T11:46:30;27.00;;;21.67;;
21503;SDS011;10913;51.992;9.228;2024-03-08T11:48:55;25.85;;;21.05;;
21503;SDS011;10913;51.992;9.228;2024-03-08T11:51:21;29.00;;;22.73;;
21503;SDS011;10913;51.992;9.228;2024-03-08T11:53:48;28.63;;;22.58;;
21503;SDS011;10913;51.992;9.228;2024-03-08T11:56:15;27.40;;;22.23;;
21503;SDS011;10913;51.992;9.228;2024-03-08T11:58:40;31.25;;;23.20;;
21503;SDS011;10913;51.992;9.228;2024-03-08T12:01:07;29.48;;;22.00;;
21503;SDS011;10913;51.992;9.228;2024-03-08T12:03:42;28.80;;;23.45;;
21503;SDS011;10913;51.992;9.228;2024-03-08T12:06:08;26.67;;;21.83;;
21503;SDS011;10913;51.992;9.228;2024-03-08T12:08:34;30.58;;;22.77;;
21503;SDS011;10913;51.992;9.228;2024-03-08T12:11:00;27.65;;;21.75;;
21503;SDS011;10913;51.992;9.228;2024-03-08T12:13:29;24.40;;;19.80;;
21503;SDS011;10913;51.992;9.228;2024-03-08T12:15:57;28.10;;;21.15;;
21503;SDS011;10913;51.992;9.228;2024-03-08T12:18:26;27.35;;;21.35;;
21503;SDS011;10913;51.992;9.228;2024-03-08T12:21:03;26.33;;;20.80;;
21503;SDS011;10913;51.992;9.228;2024-03-08T12:23:33;25.20;;;20.98;;
21503;SDS011;10913;51.992;9.228;2024-03-08T12:26:09;25.17;;;21.30;;
21503;SDS011;10913;51.992;9.228;2024-03-08T12:28:41;29.00;;;22.00;;
21503;SDS011;10913;51.992;9.228;2024-03-08T12:31:09;24.92;;;20.15;;
21503;SDS011;10913;51.992;9.228;2024-03-08T12:33:49;26.08;;;21.35;;
21503;SDS011;10913;51.992;9.228;2024-03-08T12:36:16;26.08;;;21.25;;
21503;SDS011;10913;51.992;9.228;2024-03-08T12:38:45;25.17;;;20.27;;
21503;SDS011;10913;51.992;9.228;2024-03-08T12:41:14;29.08;;;21.65;;
21503;SDS011;10913;51.992;9.228;2024-03-08T12:43:42;24.08;;;19.92;;
21503;SDS011;10913;51.992;9.228;2024-03-08T12:46:07;24.70;;;19.77;;
21503;SDS011;10913;51.992;9.228;2024-03-08T12:48:37;25.98;;;20.48;;
21503;SDS011;10913;51.992;9.228;2024-03-08T12:51:05;27.25;;;21.52;;
21503;SDS011;10913;51.992;9.228;2024-03-08T12:53:34;28.92;;;21.42;;
21503;SDS011;10913;51.992;9.228;2024-03-08T12:55:59;27.23;;;22.25;;
21503;SDS011;10913;51.992;9.228;2024-03-08T12:58:25;30.30;;;22.00;;
21503;SDS011;10913;51.992;9.228;2024-03-08T13:00:51;25.95;;;21.10;;
21503;SDS011;10913;51.992;9.228;2024-03-08T13:03:16;29.30;;;22.13;;
21503;SDS011;10913;51.992;9.228;2024-03-08T13:05:42;25.55;;;20.17;;
21503;SDS011;10913;51.992;9.228;2024-03-08T13:08:07;26.73;;;21.30;;
21503;SDS011;10913;51.992;9.228;2024-03-08T13:10:40;26.40;;;20.33;;
21503;SDS011;10913;51.992;9.228;2024-03-08T13:13:08;27.88;;;21.30;;
21503;SDS011;10913;51.992;9.228;2024-03-08T13:15:37;25.15;;;20.15;;
21503;SDS011;10913;51.992;9.228;2024-03-08T13:18:03;26.17;;;21.60;;
21503;SDS011;10913;51.992;9.228;2024-03-08T13:20:28;25.38;;;20.65;;
21503;SDS011;10913;51.992;9.228;2024-03-08T13:22:54;28.50;;;21.17;;
21503;SDS011;10913;51.992;9.228;2024-03-08T13:25:21;29.55;;;22.50;;
21503;SDS011;10913;51.992;9.228;2024-03-08T13:27:46;26.20;;;21.50;;
21503;SDS011;10913;51.992;9.228;2024-03-08T13:30:12;27.80;;;22.10;;
21503;SDS011;10913;51.992;9.228;2024-03-08T13:32:42;30.20;;;21.75;;
21503;SDS011;10913;51.992;9.228;2024-03-08T13:35:10;28.85;;;21.48;;
21503;SDS011;10913;51.992;9.228;2024-03-08T13:37:40;28.38;;;22.27;;
21503;SDS011;10913;51.992;9.228;2024-03-08T13:40:07;29.77;;;22.23;;
21503;SDS011;10913;51.992;9.228;2024-03-08T13:42:36;29.90;;;22.77;;
21503;SDS011;10913;51.992;9.228;2024-03-08T13:45:04;26.77;;;20.27;;
21503;SDS011;10913;51.992;9.228;2024-03-08T13:47:32;26.98;;;20.80;;
21503;SDS011;10913;51.992;9.228;2024-03-08T13:49:59;29.10;;;22.05;;
21503;SDS011;10913;51.992;9.228;2024-03-08T13:52:25;27.95;;;21.48;;
21503;SDS011;10913;51.992;9.228;2024-03-08T13:54:54;29.08;;;22.20;;
21503;SDS011;10913;51.992;9.228;2024-03-08T13:57:19;26.10;;;20.80;;
21503;SDS011;10913;51.992;9.228;2024-03-08T13:59:45;29.02;;;21.27;;
21503;SDS011;10913;51.992;9.228;2024-03-08T14:02:10;28.95;;;21.13;;
21503;SDS011;10913;51.992;9.228;2024-03-08T14:04:38;28.52;;;21.73;;
21503;SDS011;10913;51.992;9.228;2024-03-08T14:07:05;27.40;;;21.27;;
21503;SDS011;10913;51.992;9.228;2024-03-08T14:09:33;26.80;;;21.35;;
21503;SDS011;10913;51.992;9.228;2024-03-08T14:12:02;34.67;;;22.75;;
21503;SDS011;10913;51.992;9.228;2024-03-08T14:14:32;29.92;;;21.88;;
21503;SDS011;10913;51.992;9.228;2024-03-08T14:17:00;26.85;;;21.42;;
21503;SDS011;10913;51.992;9.228;2024-03-08T14:19:27;29.95;;;22.35;;
21503;SDS011;10913;51.992;9.228;2024-03-08T14:21:52;29.52;;;21.83;;
21503;SDS011;10913;51.992;9.228;2024-03-08T14:24:18;29.30;;;22.65;;
21503;SDS011;10913;51.992;9.228;2024-03-08T14:26:44;33.22;;;23.85;;
21503;SDS011;10913;51.992;9.228;2024-03-08T14:29:10;29.58;;;22.48;;
21503;SDS011;10913;51.992;9.228;2024-03-08T14:31:36;29.45;;;23.00;;
21503;SDS011;10913;51.992;9.228;2024-03-08T14:34:02;29.95;;;22.50;;